LQSALGKL

Guest
Details From LQSA - Sarajevo
To LGKL - KALAMATA
Flight Number -
Tags generated
Created
Modified
Stats Distance 441 nm / 816 km
Max Altitude 35,000 ft / 10,668 m
Waypoints 8
Social Downloads 0
Likes 0
Share

Download

Looking for another format? Having issues loading an existing format? Contact us
Advertisement - Login to hide

Notes

Basic altitude profile: - Ascent Rate: 2500ft/min - Ascent Speed: 250kts - Cruise Altitude: 35000ft - Cruise Speed: 420kts - Descent Rate: 1500ft/min - Descent Speed: 250kts Options: - Use NATs: yes - Use PACOTS: yes - Use low airways: yes - Use high airways: yes

Route

LQSA RETRA UW33 YNN UV62 GARTA UV60 ARA LGKL

ID Type Via Altitude (ft/m) Position (lat/lon) Dist (leg/tot) Name
O LQSA APT - 0 / 0 43.82460 / 18.33150 - / 0 nm Sarajevo
RETRA FIX - 35,000 / 10,668 42.22781 / 19.33522 105 / 105 nm
TR NDB UW33 (AWY-HI) 35,000 / 10,668 41.46323 / 19.71414 48 / 154 nm TIRANA NDB
DIMIS FIX UW33 (AWY-HI) 35,000 / 10,668 40.07250 / 20.59472 92 / 247 nm
YNN VOR UW33 (AWY-HI) 35,000 / 10,668 39.70139 / 20.82000 24 / 271 nm IOANNINA VOR-DME
GARTA FIX UV62 (AWY-HI) 25,900 / 7,894 38.98500 / 20.96833 43 / 315 nm
ARA VOR UV60 (AWY-HI) 23,500 / 7,163 38.10972 / 21.42528 56 / 372 nm ARAXOS VOR-DME
O LGKL APT - 0 / 0 37.06832 / 22.02552 68 / 440 nm KALAMATA

Altitude Profile

Advertisement - Login to hide

Weather


0- 5 10 15 20 25 30 35+ Temperature / °C

Clouds and Precipitation
Forecast for 2020-12-05 12:00 UTC. Updated 4 hours ago

Ground ~20,000 ft ~40,000 ft Winds

LQSA

Details ICAO LQSA (SJJ)
Name Sarajevo
Region Bosnia and Herzegovinia
Timezone Europe/Sarajevo (UTC+1.0)
Stats Elevation 1,708 ft / 521 m (AMSL)
Location 43.824500° 18.331800°
Runways 1
Magnetic Variation 4.543° E

METAR

LQSA 051330Z 14014KT 110V170 9999 BKN050 13/05 Q1009 WS ALL RWY NOSIG

Decode

TAF

TAF LQSA 051100Z 0512/0612 13014KT 9999 SCT060 TX17/0612Z TN09/0601Z TEMPO 0512/0621 15020G35KT TEMPO 0605/0612 16025G40KT

Decode

Departure Runways

ID Width Length Bearing (true/mag) Surface Threshold Overrun Markings Lighting
11 148 ft / 45 m 8,515 ft / 2,595 m 117.43° / 112.89° ASPHALT 328 ft / 100 m 0 ft / 0 m PREC-APP CENTERLINE EDGE THRESHOLD ALSF-I REIL-OMNI
29 148 ft / 45 m 8,515 ft / 2,595 m 297.45° / 292.91° ASPHALT 1,637 ft / 499 m 0 ft / 0 m PREC-APP CENTERLINE EDGE THRESHOLD

LGKL

Details ICAO LGKL (KLX)
Name Kalamata Intl. Airport
Region Greece
Timezone Europe/Athens (UTC+2.0)
Stats Elevation 25 ft / 8 m (AMSL)
Location 37.068600° 22.025400°
Runways 1
Magnetic Variation 4.449° E

METAR

LGKL 051320Z 00000KT 9999 FEW025 SCT080 18/11 Q1015

Decode

TAF

Not found

Destination Runways

ID Width Length Bearing (true/mag) Surface Threshold Overrun Markings Lighting
17R 148 ft / 45 m 8,877 ft / 2,706 m 169.45° / 165.00° ASPHALT 0 ft / 0 m 574 ft / 175 m APP EDGE THRESHOLD REIL-OMNI
35L 148 ft / 45 m 8,877 ft / 2,706 m 349.46° / 345.01° ASPHALT 0 ft / 0 m 577 ft / 176 m APP EDGE THRESHOLD CALVERT REIL-OMNI